Time;durP1;ratioP1;P1;durP2;ratioP2;P2;SDS_P1;SDS_P2;PMS_P1;PMS_P2;Temp;Humidity;BMP_temperature;BMP_pressure;BME280_temperature;BME280_humidity;BME280_pressure;Samples;Min_cycle;Max_cycle;Signal;HPM_P1;HPM_P2
2021/01/28 00:00:35;;;;;;;82.17;35.88;;;;;;;5.33;92.94;98282.69;1671001;86;21317;-77
2021/01/28 00:03:39;;;;;;;81.08;35.33;;;;;;;5.33;93.53;98279.14;1670969;86;21254;-77
2021/01/28 00:06:45;;;;;;;74.27;31.82;;;;;;;5.34;93.92;98278.94;1671059;86;21345;-76
2021/01/28 00:09:51;;;;;;;65.37;30.08;;;;;;;5.32;94.19;98268.81;1670131;86;21865;-77
2021/01/28 00:12:56;;;;;;;68.55;29.75;;;;;;;5.33;94.44;98271.84;1670669;86;21327;-77
2021/01/28 00:16:02;;;;;;;54.42;22.80;;;;;;;5.34;94.54;98269.97;1670913;86;21301;-77
2021/01/28 00:19:09;;;;;;;49.55;22.98;;;;;;;5.33;94.60;98262.36;1670912;86;21395;-77
2021/01/28 00:22:15;;;;;;;39.35;19.67;;;;;;;5.33;94.73;98262.36;1671096;86;21756;-77
2021/01/28 00:25:23;;;;;;;36.68;18.30;;;;;;;5.34;94.84;98261.84;1670160;86;21324;-77
2021/01/28 00:28:22;;;;;;;38.83;18.85;;;;;;;5.37;94.99;98255.52;1671013;86;21331;-77
2021/01/28 00:31:28;;;;;;;28.57;14.18;;;;;;;5.44;95.05;98260.16;1670166;86;21330;-77
2021/01/28 00:34:34;;;;;;;30.15;23.25;;;;;;;5.49;94.96;98243.62;1670897;86;21301;-77
2021/01/28 00:37:42;;;;;;;44.00;27.77;;;;;;;5.47;94.71;98232.67;1670942;86;21352;-78
2021/01/28 00:40:48;;;;;;;27.77;15.40;;;;;;;5.45;94.68;98231.48;1669737;86;21318;-78
2021/01/28 00:43:53;;;;;;;29.80;16.87;;;;;;;5.39;94.71;98247.19;1670125;86;21328;-78
2021/01/28 00:46:59;;;;;;;27.07;14.80;;;;;;;5.29;94.93;98234.47;1671121;86;21297;-78
2021/01/28 00:50:04;;;;;;;49.05;43.80;;;;;;;5.21;95.28;98221.03;1671042;86;21263;-78
2021/01/28 00:53:10;;;;;;;25.30;15.30;;;;;;;5.15;95.59;98197.42;1670636;86;21226;-78
2021/01/28 00:56:15;;;;;;;37.83;17.50;;;;;;;5.17;95.85;98179.08;1669883;86;21226;-79
2021/01/28 00:59:20;;;;;;;28.85;13.93;;;;;;;5.18;95.90;98184.33;1670675;84;21181;-79
2021/01/28 01:02:25;;;;;;;31.10;17.25;;;;;;;5.19;95.83;98221.23;1676417;85;21327;-79
2021/01/28 01:05:32;;;;;;;30.95;14.28;;;;;;;5.11;95.63;98228.13;1677406;85;21189;-79
2021/01/28 01:08:38;;;;;;;26.25;14.60;;;;;;;5.04;95.64;98223.16;1676895;85;21375;-79
2021/01/28 01:11:45;;;;;;;33.65;17.62;;;;;;;5.01;95.76;98228.44;1677549;85;21311;-79
2021/01/28 01:14:52;;;;;;;23.75;16.02;;;;;;;4.98;95.73;98226.63;1651934;85;21288;-80
2021/01/28 01:17:58;;;;;;;34.27;23.55;;;;;;;4.93;95.60;98230.42;1676207;84;21312;-80
2021/01/28 01:21:05;;;;;;;26.77;18.67;;;;;;;4.91;95.54;98235.20;1676331;85;21307;-79
2021/01/28 01:24:12;;;;;;;30.37;17.27;;;;;;;4.87;95.46;98217.97;1676357;85;21399;-79
2021/01/28 01:27:18;;;;;;;22.07;11.75;;;;;;;4.87;95.34;98218.48;1677781;85;21185;-80
2021/01/28 01:30:26;;;;;;;23.40;13.68;;;;;;;4.86;95.15;98220.88;1677651;85;21390;-79
2021/01/28 01:33:31;;;;;;;26.52;14.03;;;;;;;4.84;94.89;98227.81;1676925;85;21232;-79
2021/01/28 01:36:38;;;;;;;23.98;13.65;;;;;;;4.80;94.74;98244.15;1676486;85;21968;-80
2021/01/28 01:39:44;;;;;;;22.48;15.78;;;;;;;4.74;94.60;98239.47;1677651;85;21826;-79
2021/01/28 01:42:54;;;;;;;25.88;16.10;;;;;;;4.69;94.67;98242.42;1650762;85;21320;-80
2021/01/28 01:46:07;;;;;;;37.25;17.65;;;;;;;4.67;94.75;98233.15;1677552;85;21968;-80
2021/01/28 01:49:16;;;;;;;30.77;17.57;;;;;;;4.66;94.73;98226.06;1676554;85;21347;-79
2021/01/28 01:52:22;;;;;;;30.62;19.32;;;;;;;4.66;94.63;98216.58;1677177;85;21314;-80
2021/01/28 01:55:28;;;;;;;36.75;26.35;;;;;;;4.67;94.48;98205.23;1677592;85;21319;-80
2021/01/28 01:59:09;;;;;;;35.55;23.00;;;;;;;4.72;94.33;98210.39;1676769;85;21379;-80
2021/01/28 02:02:24;;;;;;;27.80;17.70;;;;;;;4.75;94.06;98214.09;1632069;85;21323;-80
2021/01/28 02:05:35;;;;;;;17.57;10.35;;;;;;;4.76;93.59;98214.41;1631159;85;21363;-80
2021/01/28 02:09:00;;;;;;;18.85;10.23;;;;;;;4.75;93.34;98228.98;1676693;85;21331;-80
2021/01/28 02:12:12;;;;;;;22.48;11.78;;;;;;;4.72;93.13;98229.35;1673728;85;21256;-80
2021/01/28 02:15:20;;;;;;;24.27;15.70;;;;;;;4.69;93.00;98231.59;1677621;85;21908;-80
2021/01/28 02:18:26;;;;;;;30.85;18.15;;;;;;;4.67;92.90;98233.15;1677506;85;21843;-80
2021/01/28 02:21:42;;;;;;;25.65;15.00;;;;;;;4.65;92.75;98224.36;1677770;85;21260;-80
2021/01/28 02:25:01;;;;;;;19.98;12.30;;;;;;;4.64;92.63;98228.09;1677747;85;21292;-80
2021/01/28 02:28:22;;;;;;;20.72;11.85;;;;;;;4.64;92.44;98232.16;1670841;85;21206;-80
2021/01/28 02:31:29;;;;;;;22.15;11.30;;;;;;;4.63;92.26;98235.06;1677377;85;21193;-80
2021/01/28 02:34:35;;;;;;;23.75;12.37;;;;;;;4.63;92.03;98242.67;1677513;85;21257;-80
2021/01/28 02:37:43;;;;;;;21.12;13.53;;;;;;;4.61;91.82;98239.30;1677389;85;21350;-80
2021/01/28 02:40:51;;;;;;;41.80;20.80;;;;;;;4.61;91.75;98243.36;1677493;85;21616;-80
2021/01/28 02:43:59;;;;;;;25.82;14.53;;;;;;;4.59;91.61;98242.20;1677619;85;21332;-80
2021/01/28 02:47:14;;;;;;;29.12;20.62;;;;;;;4.60;91.49;98245.23;1675173;85;21189;-80
2021/01/28 02:50:22;;;;;;;39.25;21.40;;;;;;;4.59;91.05;98229.19;1675326;85;21291;-80
2021/01/28 02:53:29;;;;;;;23.47;16.42;;;;;;;4.55;90.71;98237.35;1676577;85;21359;-80
2021/01/28 02:56:36;;;;;;;24.98;14.58;;;;;;;4.50;90.62;98241.98;1676424;85;21347;-80
2021/01/28 02:59:42;;;;;;;33.65;18.30;;;;;;;4.46;90.39;98233.91;1676246;85;21273;-80
2021/01/28 03:02:49;;;;;;;28.05;15.75;;;;;;;4.44;90.25;98234.61;1686309;84;21192;-80
2021/01/28 03:05:57;;;;;;;28.85;16.02;;;;;;;4.42;90.08;98235.81;1693114;85;21287;-80
2021/01/28 03:09:04;;;;;;;32.10;15.15;;;;;;;4.40;90.05;98225.19;1692082;85;21335;-80
2021/01/28 03:12:27;;;;;;;32.67;16.48;;;;;;;4.38;89.97;98231.83;1692455;85;21204;-80
2021/01/28 03:15:38;;;;;;;28.52;13.65;;;;;;;4.35;89.93;98233.03;1647717;85;21323;-80
2021/01/28 03:18:44;;;;;;;29.05;12.82;;;;;;;4.33;89.84;98226.46;1692280;85;21517;-80
2021/01/28 03:21:50;;;;;;;25.52;12.95;;;;;;;4.35;89.76;98227.09;1693337;80;21181;-80
2021/01/28 03:25:00;;;;;;;28.17;14.80;;;;;;;4.34;89.65;98222.72;1692952;85;21908;-81
2021/01/28 03:28:05;;;;;;;43.52;21.20;;;;;;;4.33;89.45;98211.58;1692438;85;21865;-80
2021/01/28 03:31:13;;;;;;;51.08;28.42;;;;;;;4.32;89.29;98209.87;1693257;85;21287;-81
2021/01/28 03:34:19;;;;;;;53.58;27.30;;;;;;;4.33;89.22;98210.73;1691939;85;21718;-80
2021/01/28 03:37:27;;;;;;;51.92;29.40;;;;;;;4.32;88.99;98209.87;1691668;85;21231;-80
2021/01/28 03:40:34;;;;;;;51.92;24.23;;;;;;;4.34;88.77;98210.55;1692996;85;21284;-80
2021/01/28 03:43:40;;;;;;;38.17;21.62;;;;;;;4.33;88.48;98216.16;1692119;85;21283;-80
2021/01/28 03:46:47;;;;;;;40.75;23.20;;;;;;;4.31;88.43;98212.77;1693118;85;21892;-81
2021/01/28 03:49:55;;;;;;;42.95;22.32;;;;;;;4.24;88.42;98211.34;1691709;84;21397;-80
2021/01/28 03:53:03;;;;;;;38.38;21.27;;;;;;;4.20;88.53;98209.20;1692744;85;21351;-81
2021/01/28 03:56:10;;;;;;;48.15;31.25;;;;;;;4.16;88.65;98199.77;1692923;85;21291;-81
2021/01/28 03:59:16;;;;;;;32.10;17.70;;;;;;;4.16;88.80;98207.38;1692955;85;21709;-81
2021/01/28 04:02:39;;;;;;;29.92;17.05;;;;;;;4.16;88.75;98214.14;1689304;84;21340;-81
2021/01/28 04:05:59;;;;;;;39.50;25.45;;;;;;;4.12;88.63;98195.23;1645696;85;21303;-81
2021/01/28 04:09:05;;;;;;;39.98;20.40;;;;;;;4.09;88.65;98210.00;1674178;85;21890;-81
2021/01/28 04:12:14;;;;;;;57.67;44.15;;;;;;;4.03;88.71;98205.82;1677623;85;21184;-81
2021/01/28 04:15:25;;;;;;;30.40;17.95;;;;;;;4.00;88.85;98194.01;1677722;85;21347;-81
2021/01/28 04:18:31;;;;;;;38.08;21.15;;;;;;;3.98;88.79;98233.95;1676261;85;21864;-81
2021/01/28 04:21:53;;;;;;;36.50;18.40;;;;;;;3.91;88.90;98245.19;1677624;85;21293;-81
2021/01/28 04:25:02;;;;;;;41.20;22.22;;;;;;;3.84;89.26;98266.19;1650646;85;21303;-81
2021/01/28 04:28:09;;;;;;;41.25;19.75;;;;;;;3.79;89.64;98261.84;1677240;85;21315;-81
2021/01/28 04:31:15;;;;;;;46.45;22.30;;;;;;;3.79;89.92;98260.48;1676173;85;21331;-81
2021/01/28 04:34:21;;;;;;;48.87;22.65;;;;;;;3.80;90.13;98259.97;1676533;85;21344;-81
2021/01/28 04:37:29;;;;;;;63.38;39.65;;;;;;;3.83;90.23;98256.41;1677546;85;21330;-81
2021/01/28 04:40:55;;;;;;;67.97;40.40;;;;;;;3.90;90.19;98244.84;1673924;85;21828;-82
2021/01/28 04:44:03;;;;;;;64.90;43.15;;;;;;;3.98;89.98;98228.53;1665094;84;21243;-81
2021/01/28 04:47:10;;;;;;;81.45;56.10;;;;;;;4.02;89.52;98214.97;1657962;85;21857;-82
2021/01/28 04:50:16;;;;;;;66.25;44.58;;;;;;;4.09;89.31;98221.30;1672587;85;21313;-82
2021/01/28 04:53:35;;;;;;;54.87;29.60;;;;;;;4.13;88.93;98240.72;1685214;83;21394;-81
2021/01/28 04:56:47;;;;;;;48.05;24.72;;;;;;;4.10;88.83;98254.13;1687278;85;21282;-82
2021/01/28 04:59:57;;;;;;;50.52;28.90;;;;;;;4.11;89.01;98244.97;1665120;86;21867;-81
2021/01/28 05:03:07;;;;;;;59.80;27.15;;;;;;;4.17;89.20;98259.62;1665109;84;21325;-81
2021/01/28 05:06:20;;;;;;;51.53;20.95;;;;;;;4.21;89.38;98249.59;1666490;85;21290;-81
2021/01/28 05:09:37;;;;;;;45.23;21.97;;;;;;;4.23;89.43;98242.63;1690550;85;21184;-81
2021/01/28 05:12:52;;;;;;;39.45;17.98;;;;;;;4.28;89.54;98234.30;1654971;83;21365;-81
2021/01/28 05:16:00;;;;;;;39.48;20.08;;;;;;;4.32;89.49;98234.75;1652987;85;21872;-82
2021/01/28 05:19:12;;;;;;;39.75;19.52;;;;;;;4.37;89.39;98272.92;1661992;84;21217;-81
2021/01/28 05:22:36;;;;;;;50.28;20.90;;;;;;;4.41;89.27;98274.23;1661383;85;21216;-81
2021/01/28 05:25:48;;;;;;;47.15;20.40;;;;;;;4.40;89.20;98280.68;1676006;85;21278;-81
2021/01/28 05:28:55;;;;;;;45.88;19.35;;;;;;;4.41;89.24;98290.98;1688115;83;21859;-81
2021/01/28 05:32:06;;;;;;;44.05;21.20;;;;;;;4.43;89.29;98282.19;1684532;83;21698;-81
2021/01/28 05:35:28;;;;;;;41.20;20.70;;;;;;;4.47;89.33;98287.05;1664374;83;21798;-82
2021/01/28 05:38:48;;;;;;;34.15;16.55;;;;;;;4.53;89.35;98300.34;1680062;84;21300;-82
2021/01/28 05:41:54;;;;;;;32.73;17.05;;;;;;;4.58;89.16;98304.68;1680563;84;21852;-82
2021/01/28 05:45:02;;;;;;;33.50;15.53;;;;;;;4.58;89.01;98294.69;1683726;83;21298;-83
2021/01/28 05:48:35;;;;;;;36.65;15.53;;;;;;;4.60;88.93;98283.66;1684372;83;21374;-82
2021/01/28 05:52:00;;;;;;;46.70;17.07;;;;;;;4.60;88.80;98275.02;1687530;83;21212;-83
2021/01/28 05:55:19;;;;;;;31.95;14.98;;;;;;;4.55;88.76;98287.44;1687572;84;21184;-83
2021/01/28 05:58:50;;;;;;;33.20;14.00;;;;;;;4.53;88.89;98304.41;1691985;83;21187;-82
2021/01/28 06:02:27;;;;;;;32.73;14.93;;;;;;;4.52;89.06;98294.61;1688449;84;21406;-82
2021/01/28 06:06:03;;;;;;;42.90;16.40;;;;;;;4.49;89.31;98313.92;1661579;83;21269;-80
2021/01/28 06:09:45;;;;;;;34.70;15.37;;;;;;;4.43;89.69;98297.08;1709122;82;21309;-82
2021/01/28 06:13:24;;;;;;;34.75;14.47;;;;;;;4.41;89.98;98295.05;1702929;83;21783;-83
2021/01/28 06:16:55;;;;;;;33.00;15.45;;;;;;;4.36;90.17;98290.20;1606003;89;21975;-81
2021/01/28 06:20:27;;;;;;;35.88;14.95;;;;;;;4.30;90.42;98282.83;1706622;82;21574;-83
2021/01/28 06:24:18;;;;;;;37.40;15.60;;;;;;;4.24;90.59;98299.30;1711434;82;22053;-82
2021/01/28 06:27:56;;;;;;;30.25;14.58;;;;;;;4.20;90.81;98312.86;1692694;83;21273;-81
2021/01/28 06:31:34;;;;;;;37.00;14.98;;;;;;;4.17;91.27;98283.45;1714995;82;21335;-82
2021/01/28 06:35:29;;;;;;;33.38;14.73;;;;;;;4.17;91.46;98292.92;1690875;83;21195;-82
2021/01/28 06:39:09;;;;;;;42.67;15.70;;;;;;;4.15;91.57;98296.86;1682483;83;21322;-83
2021/01/28 06:42:51;;;;;;;26.90;14.30;;;;;;;4.08;91.80;98314.33;1691879;83;21575;-83
2021/01/28 06:46:10;;;;;;;37.65;16.20;;;;;;;4.02;92.10;98309.66;1684023;82;21282;-81
2021/01/28 06:49:46;;;;;;;40.80;15.13;;;;;;;3.99;92.71;98323.53;1692900;83;21219;-83
2021/01/28 06:53:25;;;;;;;27.40;14.58;;;;;;;3.97;93.30;98332.36;1842439;76;22222;-77
2021/01/28 06:57:11;;;;;;;37.83;15.10;;;;;;;3.87;93.67;98339.37;1754218;80;21219;-78
2021/01/28 07:00:41;;;;;;;28.23;15.90;;;;;;;3.79;94.39;98358.36;1765938;79;21309;-79
2021/01/28 07:04:10;;;;;;;40.80;15.53;;;;;;;3.67;95.25;98367.90;1761195;80;21354;-78
2021/01/28 07:07:34;;;;;;;31.80;14.23;;;;;;;3.56;96.16;98362.41;1743471;80;22918;-78
2021/01/28 07:10:57;;;;;;;34.23;15.13;;;;;;;3.47;97.23;98356.20;1755683;80;21907;-78
2021/01/28 07:14:05;;;;;;;44.93;16.05;;;;;;;3.43;98.30;98358.09;1754624;80;21212;-78
2021/01/28 07:17:28;;;;;;;30.77;14.58;;;;;;;3.41;99.18;98368.25;1787162;78;21886;-79
2021/01/28 07:20:45;;;;;;;29.32;14.87;;;;;;;3.41;99.84;98358.80;1759716;79;21770;-78
2021/01/28 07:24:07;;;;;;;34.60;14.93;;;;;;;3.43;100.00;98362.14;1784601;78;21306;-78
2021/01/28 07:27:15;;;;;;;28.90;14.98;;;;;;;3.45;100.00;98358.26;1786080;78;21330;-77
2021/01/28 07:30:56;;;;;;;27.77;13.95;;;;;;;3.47;100.00;98351.31;1784335;79;21433;-76
2021/01/28 07:34:10;;;;;;;;;;;;;;;3.50;100.00;98357.72;1774298;78;21306;-84
2021/01/28 07:37:33;;;;;;;29.12;12.90;;;;;;;3.55;100.00;98355.32;1731844;81;20224;-78
2021/01/28 07:41:23;;;;;;;26.82;13.40;;;;;;;3.65;100.00;98343.76;1727200;81;21306;-79
2021/01/28 07:44:44;;;;;;;23.60;11.95;;;;;;;3.80;100.00;98335.70;1678528;82;21249;-79
2021/01/28 07:47:59;;;;;;;23.77;12.82;;;;;;;3.95;100.00;98335.73;1736592;81;21317;-79
2021/01/28 07:51:40;;;;;;;30.65;13.75;;;;;;;4.08;100.00;98329.20;1747948;80;21192;-78
2021/01/28 07:54:59;;;;;;;33.92;13.70;;;;;;;4.20;100.00;98329.10;1729790;81;21351;-78
2021/01/28 07:58:05;;;;;;;25.35;11.88;;;;;;;4.33;100.00;98317.13;1741398;80;21196;-78
2021/01/28 08:01:20;;;;;;;28.65;12.70;;;;;;;4.45;100.00;98318.86;1760612;80;21590;-77
2021/01/28 08:04:58;;;;;;;25.90;11.12;;;;;;;4.54;99.79;98308.78;1746837;80;21814;-78
2021/01/28 08:08:20;;;;;;;27.37;11.20;;;;;;;4.65;99.35;98292.05;1687742;83;21193;-78
2021/01/28 08:11:28;;;;;;;27.75;11.63;;;;;;;4.74;98.56;98300.92;1797433;78;21486;-78
2021/01/28 08:14:37;;;;;;;26.57;11.93;;;;;;;4.74;97.65;98304.47;1796054;78;21940;-76
2021/01/28 08:17:43;;;;;;;19.82;10.48;;;;;;;4.83;97.16;98312.83;1798130;79;21306;-79
2021/01/28 08:20:53;;;;;;;26.30;10.45;;;;;;;4.93;96.89;98311.18;1794723;78;21264;-78
2021/01/28 08:24:05;;;;;;;27.32;11.05;;;;;;;5.03;96.50;98326.63;1766819;78;21199;-78
2021/01/28 08:27:23;;;;;;;;;;;;;;;5.14;96.02;98342.94;1796691;78;22549;-78
2021/01/28 08:30:33;;;;;;;26.07;10.23;;;;;;;5.22;95.34;98358.23;1794922;78;20314;-81
2021/01/28 08:33:38;;;;;;;22.60;9.68;;;;;;;5.21;94.39;98360.10;1795112;78;21336;-80
2021/01/28 08:37:04;;;;;;;27.37;8.90;;;;;;;5.22;93.91;98365.00;1792958;78;21608;-80
2021/01/28 08:40:14;;;;;;;19.20;9.83;;;;;;;5.23;93.68;98351.80;1798671;79;21112;-80
2021/01/28 08:43:25;;;;;;;14.50;7.00;;;;;;;5.30;93.37;98357.61;1795709;78;21380;-80
2021/01/28 08:46:30;;;;;;;19.92;7.58;;;;;;;5.34;92.66;98367.05;1773386;78;21177;-80
2021/01/28 08:49:36;;;;;;;18.73;8.05;;;;;;;5.35;91.89;98367.37;1796595;78;21346;-80
2021/01/28 08:52:43;;;;;;;19.32;7.72;;;;;;;5.32;91.31;98379.97;1795735;79;21943;-81
2021/01/28 08:55:52;;;;;;;11.40;6.22;;;;;;;5.28;91.12;98392.22;1791196;79;21346;-81
2021/01/28 08:58:58;;;;;;;16.60;5.35;;;;;;;5.23;90.95;98389.75;1790890;79;21371;-80
2021/01/28 09:02:09;;;;;;;11.73;5.28;;;;;;;5.22;91.05;98374.01;1792612;79;22015;-80
2021/01/28 09:05:33;;;;;;;12.20;5.05;;;;;;;5.24;90.43;98380.06;1766757;79;21573;-80
2021/01/28 09:08:55;;;;;;;10.13;4.37;;;;;;;5.26;89.76;98379.86;1793287;79;21260;-80
2021/01/28 09:12:23;;;;;;;8.93;4.15;;;;;;;5.32;89.35;98366.41;1794726;79;21310;-82
2021/01/28 09:15:41;;;;;;;7.03;3.30;;;;;;;5.45;88.70;98378.42;1793295;79;21345;-84
2021/01/28 09:18:54;;;;;;;12.45;4.20;;;;;;;5.59;88.22;98381.61;1792763;79;21275;-80
2021/01/28 09:22:09;;;;;;;7.30;2.77;;;;;;;5.71;87.23;98378.73;1793105;79;21798;-79
2021/01/28 09:25:38;;;;;;;6.27;2.93;;;;;;;5.80;85.59;98373.52;1791482;79;21311;-79
2021/01/28 09:29:05;;;;;;;7.08;2.60;;;;;;;5.88;85.29;98369.33;1787604;79;21326;-78
2021/01/28 09:32:22;;;;;;;4.47;2.22;;;;;;;5.92;84.23;98382.52;1790151;79;21295;-79
2021/01/28 09:35:31;;;;;;;3.25;1.92;;;;;;;5.90;83.33;98398.45;1790221;79;21295;-79
2021/01/28 09:38:42;;;;;;;4.67;1.98;;;;;;;5.84;79.88;98392.97;1790596;79;22232;-79
2021/01/28 09:41:54;;;;;;;3.85;1.70;;;;;;;5.81;79.46;98395.53;1789410;79;21299;-78
2021/01/28 09:45:01;;;;;;;5.67;2.67;;;;;;;5.87;79.82;98393.40;1753877;80;21338;-78
2021/01/28 09:48:07;;;;;;;4.83;2.20;;;;;;;5.96;79.88;98403.66;1723209;82;21314;-79
2021/01/28 09:51:40;;;;;;;3.95;2.10;;;;;;;5.93;78.97;98394.56;1738475;81;21741;-78
2021/01/28 09:54:45;;;;;;;2.60;2.02;;;;;;;5.85;78.39;98410.41;1735681;81;21236;-78
2021/01/28 09:57:50;;;;;;;2.95;1.98;;;;;;;5.75;76.99;98424.80;1733880;81;21244;-78
2021/01/28 10:00:59;;;;;;;5.35;2.00;;;;;;;5.69;77.22;98406.55;1730849;81;21315;-78
2021/01/28 10:04:06;;;;;;;2.00;1.67;;;;;;;5.74;77.41;98387.86;1730310;81;21518;-78
2021/01/28 10:07:13;;;;;;;3.95;2.40;;;;;;;5.79;77.13;98379.14;1729880;81;21283;-78
2021/01/28 10:10:19;;;;;;;4.12;2.30;;;;;;;5.82;77.12;98366.53;1736729;81;21324;-78
2021/01/28 10:13:30;;;;;;;4.00;2.42;;;;;;;5.88;76.72;98366.61;1737903;81;21315;-78
2021/01/28 10:16:36;;;;;;;4.05;2.08;;;;;;;5.98;77.35;98343.77;1734493;81;21272;-79
2021/01/28 10:19:44;;;;;;;5.22;2.10;;;;;;;6.11;76.77;98337.91;1732105;81;21214;-79
2021/01/28 10:23:17;;;;;;;3.95;2.22;;;;;;;6.13;75.97;98351.31;1715729;81;21212;-79
2021/01/28 10:26:23;;;;;;;3.10;2.37;;;;;;;6.17;75.29;98344.47;1728611;81;21338;-83
2021/01/28 10:29:31;;;;;;;2.70;2.17;;;;;;;6.10;74.66;98347.11;1708785;81;21280;-82
2021/01/28 10:32:37;;;;;;;3.70;2.40;;;;;;;6.04;74.57;98348.41;1731549;81;21295;-82
2021/01/28 10:35:46;;;;;;;6.72;2.20;;;;;;;6.04;74.79;98353.84;1730909;81;21354;-82
2021/01/28 10:38:56;;;;;;;3.55;2.65;;;;;;;6.09;75.44;98358.17;1735999;81;21220;-85
2021/01/28 10:42:02;;;;;;;3.90;2.50;;;;;;;6.14;75.47;98371.99;1735689;81;21311;-81
2021/01/28 10:45:08;;;;;;;11.50;7.42;;;;;;;6.16;74.60;98378.05;1746754;80;21337;-81
2021/01/28 10:48:16;;;;;;;3.20;2.35;;;;;;;6.20;75.08;98382.06;1749747;80;22479;-81
2021/01/28 10:51:22;;;;;;;3.83;2.70;;;;;;;6.26;74.07;98398.11;1754060;80;21174;-81
2021/01/28 10:54:28;;;;;;;8.05;3.10;;;;;;;6.19;74.51;98385.81;1731978;81;21350;-81
2021/01/28 10:57:35;;;;;;;3.33;2.22;;;;;;;6.15;75.15;98373.66;1740065;81;21409;-81
2021/01/28 11:00:41;;;;;;;6.30;2.65;;;;;;;6.15;74.95;98370.95;1737716;81;21350;-81
2021/01/28 11:03:46;;;;;;;4.47;2.70;;;;;;;6.11;75.26;98404.94;1717175;81;21969;-81
2021/01/28 11:06:56;;;;;;;4.15;2.35;;;;;;;6.16;75.49;98397.05;1714671;81;21327;-87
2021/01/28 11:10:02;;;;;;;5.00;2.00;;;;;;;6.13;74.56;98393.39;1715737;82;21840;-80
2021/01/28 11:13:11;;;;;;;5.50;2.10;;;;;;;6.03;75.25;98411.36;1709657;82;21930;-80
2021/01/28 11:16:23;;;;;;;3.22;2.30;;;;;;;5.89;75.17;98419.84;1709784;82;21267;-81
2021/01/28 11:19:26;;;;;;;3.85;2.10;;;;;;;5.86;75.26;98414.79;1727846;81;21655;-80
2021/01/28 11:22:35;;;;;;;5.12;2.33;;;;;;;5.78;73.27;98427.62;1686340;81;21221;-79
2021/01/28 11:25:45;;;;;;;4.05;2.08;;;;;;;5.60;72.71;98423.48;1683709;81;21288;-81
2021/01/28 11:28:55;;;;;;;3.25;1.90;;;;;;;5.46;72.06;98416.70;1657406;81;21211;-79
2021/01/28 11:32:04;;;;;;;2.77;1.90;;;;;;;5.42;72.76;98428.47;1719195;81;21805;-79
2021/01/28 11:35:14;;;;;;;3.37;2.00;;;;;;;5.44;72.24;98433.70;1687792;81;21244;-78
2021/01/28 11:38:20;;;;;;;2.72;1.57;;;;;;;5.39;71.51;98426.96;1714299;81;21334;-79
2021/01/28 11:41:27;;;;;;;3.08;1.65;;;;;;;5.29;71.80;98425.06;1717240;81;22930;-78
2021/01/28 11:44:34;;;;;;;6.87;2.20;;;;;;;5.23;72.13;98427.18;1715253;81;21315;-86
2021/01/28 11:47:40;;;;;;;5.12;2.08;;;;;;;5.22;72.81;98412.44;1712203;81;21312;-79
2021/01/28 11:50:46;;;;;;;3.87;2.15;;;;;;;5.26;73.34;98428.14;1715647;81;21319;-79
2021/01/28 11:53:55;;;;;;;5.12;2.20;;;;;;;5.32;73.72;98446.39;1714518;81;21366;-79
2021/01/28 11:57:01;;;;;;;2.10;1.70;;;;;;;5.39;73.35;98456.79;1715484;81;21365;-79
2021/01/28 12:00:07;;;;;;;3.33;1.70;;;;;;;5.33;73.50;98448.58;1709280;81;21318;-77
2021/01/28 12:03:18;;;;;;;4.83;2.27;;;;;;;5.23;73.12;98420.41;1714122;81;21391;-79
2021/01/28 12:06:25;;;;;;;6.78;2.87;;;;;;;5.16;73.44;98405.07;1713216;81;21317;-80
2021/01/28 12:09:30;;;;;;;7.95;3.90;;;;;;;5.23;74.41;98402.78;1712132;81;21590;-79
2021/01/28 12:12:42;;;;;;;6.47;1.75;;;;;;;5.34;74.70;98411.78;1671379;82;21405;-81
2021/01/28 12:15:52;;;;;;;3.55;2.37;;;;;;;5.31;73.53;98439.77;1670671;82;21220;-82
2021/01/28 12:19:01;;;;;;;2.98;1.98;;;;;;;5.18;73.48;98443.69;1725232;81;21304;-81
2021/01/28 12:22:17;;;;;;;3.62;1.80;;;;;;;5.13;74.16;98441.53;1713130;82;21268;-80
2021/01/28 12:25:25;;;;;;;6.42;1.80;;;;;;;5.10;73.82;98455.45;1705833;82;21439;-81
2021/01/28 12:28:32;;;;;;;2.42;1.70;;;;;;;5.09;73.97;98464.09;1706341;82;21342;-81
2021/01/28 12:31:42;;;;;;;5.28;3.33;;;;;;;5.09;74.11;98463.26;1703637;82;21237;-80
2021/01/28 12:34:49;;;;;;;7.60;2.45;;;;;;;5.03;72.55;98468.88;1726598;80;21373;-82
2021/01/28 12:37:57;;;;;;;1.15;1.05;;;;;;;5.03;72.04;98485.66;1715957;81;21905;-81
2021/01/28 12:41:13;;;;;;;1.67;1.40;;;;;;;5.02;72.19;98501.59;1721144;81;21295;-81
2021/01/28 12:44:20;;;;;;;3.67;1.50;;;;;;;4.95;72.59;98499.31;1721707;81;21314;-82
2021/01/28 12:47:35;;;;;;;3.45;2.08;;;;;;;4.88;73.32;98505.96;1716248;81;21252;-80
2021/01/28 12:50:44;;;;;;;4.22;1.72;;;;;;;4.93;74.45;98504.05;1719494;81;21318;-82
2021/01/28 12:53:50;;;;;;;2.95;1.70;;;;;;;5.01;73.44;98495.86;1721871;81;21310;-82
2021/01/28 12:57:00;;;;;;;2.12;1.52;;;;;;;5.05;73.28;98491.23;1719782;81;21334;-81
2021/01/28 13:00:05;;;;;;;6.05;1.67;;;;;;;5.16;73.28;98495.87;1707976;83;21209;-80
2021/01/28 13:03:14;;;;;;;2.27;1.32;;;;;;;5.14;70.55;98489.28;1704511;83;21323;-80
2021/01/28 13:06:20;;;;;;;2.62;1.70;;;;;;;4.97;70.67;98474.22;1698078;83;21196;-81
2021/01/28 13:09:47;;;;;;;3.52;2.08;;;;;;;4.87;71.03;98479.39;1689175;84;21225;-79
2021/01/28 13:12:53;;;;;;;3.20;1.37;;;;;;;4.74;70.44;98475.11;1690334;84;22353;-80
2021/01/28 13:16:00;;;;;;;4.78;1.60;;;;;;;4.63;71.12;98490.97;1689106;84;21589;-80
2021/01/28 13:19:07;;;;;;;5.87;1.72;;;;;;;4.61;71.89;98489.78;1681662;84;21336;-81
2021/01/28 13:22:13;;;;;;;5.37;1.45;;;;;;;4.61;72.26;98487.07;1690681;84;21449;-81
2021/01/28 13:25:24;;;;;;;3.15;1.90;;;;;;;4.52;72.15;98486.33;1694316;84;21331;-81
2021/01/28 13:28:29;;;;;;;2.00;1.75;;;;;;;4.46;71.63;98503.79;1694366;84;21178;-81
2021/01/28 13:31:36;;;;;;;2.65;1.80;;;;;;;4.40;71.44;98520.25;1688682;84;21351;-81
2021/01/28 13:34:45;;;;;;;1.50;1.10;;;;;;;4.32;72.21;98514.37;1684595;83;21800;-81
2021/01/28 13:37:53;;;;;;;1.50;1.40;;;;;;;4.32;72.02;98514.37;1684074;84;21182;-81
2021/01/28 13:40:59;;;;;;;2.98;1.25;;;;;;;4.26;70.40;98498.86;1676019;84;21273;-80
2021/01/28 13:44:05;;;;;;;4.28;2.30;;;;;;;4.12;70.25;98491.52;1689376;84;21169;-81
2021/01/28 13:47:11;;;;;;;5.25;2.83;;;;;;;3.98;71.32;98485.02;1687752;84;21367;-80
2021/01/28 13:50:20;;;;;;;3.00;1.80;;;;;;;3.91;72.31;98502.16;1685897;84;21417;-80
2021/01/28 13:53:26;;;;;;;;;;;;;;;3.85;73.29;98493.70;1716121;81;22402;-80
2021/01/28 13:56:32;;;;;;;3.85;2.20;;;;;;;3.73;73.87;98496.48;1711976;82;20312;-80
2021/01/28 13:59:38;;;;;;;2.90;2.02;;;;;;;3.62;74.75;98493.31;1723716;81;21890;-80
2021/01/28 14:02:44;;;;;;;3.35;1.90;;;;;;;3.53;75.09;98508.76;1780339;79;21295;-81
2021/01/28 14:05:50;;;;;;;3.58;2.00;;;;;;;3.44;75.23;98523.32;1780932;79;21311;-81
2021/01/28 14:08:55;;;;;;;6.17;2.30;;;;;;;3.37;75.83;98520.97;1790566;79;21567;-83
2021/01/28 14:12:03;;;;;;;6.62;3.25;;;;;;;3.31;76.07;98525.21;1776774;79;21276;-81
2021/01/28 14:15:09;;;;;;;4.58;2.98;;;;;;;3.26;76.54;98528.95;1780526;79;21303;-80
2021/01/28 14:18:16;;;;;;;3.45;2.20;;;;;;;3.24;77.46;98523.69;1781542;79;21193;-80
2021/01/28 14:21:22;;;;;;;3.95;2.60;;;;;;;3.18;78.46;98523.05;1778939;79;21375;-81
2021/01/28 14:24:28;;;;;;;6.08;2.35;;;;;;;3.04;79.16;98521.05;1785445;79;21227;-81
2021/01/28 14:27:33;;;;;;;6.25;2.70;;;;;;;2.83;79.90;98519.41;1778957;79;21307;-80
2021/01/28 14:30:39;;;;;;;6.53;3.05;;;;;;;2.68;80.49;98516.05;1781503;79;21831;-80
2021/01/28 14:33:45;;;;;;;3.87;2.40;;;;;;;2.63;80.56;98508.09;1783141;79;21271;-80
2021/01/28 14:36:50;;;;;;;4.33;2.72;;;;;;;2.62;79.41;98510.47;1780406;79;22430;-80
2021/01/28 14:39:55;;;;;;;3.60;2.77;;;;;;;2.55;78.53;98512.50;1793210;79;21224;-79
2021/01/28 14:43:00;;;;;;;3.55;2.65;;;;;;;2.49;78.06;98520.41;1793010;79;21326;-80
2021/01/28 14:46:07;;;;;;;3.17;2.22;;;;;;;2.48;77.80;98516.03;1790770;79;21268;-84
2021/01/28 14:49:13;;;;;;;4.17;2.77;;;;;;;2.50;77.58;98510.82;1778130;79;21314;-84
2021/01/28 14:52:19;;;;;;;6.37;2.77;;;;;;;2.51;77.58;98513.85;1769528;81;21310;-84
2021/01/28 14:55:25;;;;;;;3.83;2.47;;;;;;;2.50;77.96;98503.23;1767958;81;21323;-80
2021/01/28 14:58:30;;;;;;;5.80;3.05;;;;;;;2.49;77.85;98505.09;1767113;81;21413;-81
2021/01/28 15:01:36;;;;;;;10.15;2.98;;;;;;;2.46;77.96;98511.33;1764774;79;21290;-81